Terminal Aerodrome Forecast
Issued by NWS

Home | Current Version | Previous Version | Text Only | Print | Product List | Glossary On
Versions: 1 2 3 4 5 6 7 8 9 10 11 12 13 14 15 16 17 18 19 20 21 22 23 24 25 26 27 28 29 30 31
087
FTUS44 KOUN 291544 AAB
TAFCSM
TAF AMD
KCSM 291544Z 2916/3012 08015G21KT 2SM -RA BR OVC003
      TEMPO 2916/2918 -TSRA OVC030CB
     FM291800 14014G20KT P6SM BKN040
     FM300100 26017KT P6SM SCT040 SCT250=

USA.gov is the U.S. government's official web portal to all federal, state and local government web resources and services.